Orange City, IA

9:52 AM CDT on May 23, 2015 (GMT -0500)
Orange City Municipal | | Change Station
CLOSE
Current Station
Airport
Location: Orange City,
Elevation: 1414 ft
Nearby Weather Stations

Elev 1414 ft 42.99 °N, 96.06 °W | Updated 17 minutes ago

Overcast
Overcast
61 °F
Feels Like 61 °F
N
6
Wind Variable Wind from SE

Today
High -- | Low -- °F
--% Chance of Precip.
Yesterday
High -- | Low -- °F
Precip. -- in
5:53 AM 8:48 PM
Waxing Crescent, 30% visible
Pressure 30.21 in
Visibility 10.0 miles
Clouds Overcast 5500 ft
Dew Point 50 °F
Humidity 68%
Rainfall 0.02 in
Snow Depth Not available.
UV 2 out of 12
Pollen 6.20 out of 12
Air Quality Not available.
Flu Activity Sporadic
METAR KORC 231435Z AUTO 14005KT 10SM OVC055 16/10 A3021 RMK AO2

More Conditions Fewer Conditions

Pressure 30.21 in
Visibility 10.0 miles
Clouds Overcast 5500 ft
Dew Point 50 °F
Humidity 68%
Rainfall 0.02 in
Snow Depth Not available.
UV 2 out of 12
Pollen 6.20 out of 12
Air Quality Not available.
Flu Activity Sporadic
METAR KORC 231435Z AUTO 14005KT 10SM OVC055 16/10 A3021 RMK AO2

More Conditions Fewer Conditions

10-Day Weather Forecast

Almanac

Astronomy

May. 23, 2015 Rise Set
Actual Time
Civil Twilight
Nautical Twilight
Astronomical Twilight
Moon
Length of Visible Light
Length of Day
Tomorrow will be .
, % of the Moon is Illuminated

Today's Extremes

State Highs State Lows

Community

WunderPhotos

Upload Photos

1,823,480 photos uploaded!

WunderBlogs® & News

Nearby

Air Quality

  Air Quality AQ Index Pollutant
Not available.

Snow Depth

Station Depth Elevation

Earthquake Activity

City Distance Mag. Time & Date
Minimum magnitude displayed is 2.5.

Coastal Water Temperatures

Place Temperature

Stations

Nearby Weather Stations

Station Location Temp. Windchill Dew Point Humidity Wind Precip. Elev Updated Type